Terminal Aerodrome Forecast
Issued by NWS

Home | Current Version | Previous Version | Text Only | Print | Product List | Glossary On
Versions: 1 2 3 4 5 6 7 8 9 10 11 12 13 14 15 16 17 18 19 20 21 22 23 24 25 26 27 28 29 30
000
FTUS43 KGLD 211720
TAFMCK
TAF
KMCK 211720Z 2118/2218 17015G25KT P6SM SCT025
     FM220000 14009KT P6SM SCT150
     FM220800 16006KT 3SM BR SCT007
     FM221300 22010KT P6SM VCSH SCT080=

USA.gov is the U.S. government's official web portal to all federal, state and local government web resources and services.